createdAt,value
2022-12-11T00:01:58.546Z,13.98
2022-12-11T00:04:26.274Z,14.07
2022-12-11T00:06:55.243Z,14.32
2022-12-11T00:09:22.933Z,13.60
2022-12-11T00:11:50.557Z,13.18
2022-12-11T00:14:18.230Z,15.15
2022-12-11T00:16:45.873Z,13.90
2022-12-11T00:19:13.495Z,13.90
2022-12-11T00:21:41.141Z,15.43
2022-12-11T00:24:10.411Z,14.15
2022-12-11T00:26:38.205Z,16.65
2022-12-11T00:29:08.236Z,16.80
2022-12-11T00:31:35.835Z,17.52
2022-12-11T00:34:03.414Z,17.38
2022-12-11T00:36:31.077Z,18.90
2022-12-11T00:38:59.795Z,17.92
2022-12-11T00:41:28.725Z,19.83
2022-12-11T00:43:56.389Z,18.67
2022-12-11T00:46:24.123Z,18.58
2022-12-11T00:48:51.806Z,17.95
2022-12-11T00:51:19.567Z,17.83
2022-12-11T00:53:47.202Z,17.05
2022-12-11T00:56:18.353Z,17.90
2022-12-11T00:58:47.656Z,17.27
2022-12-11T01:01:18.539Z,17.80
2022-12-11T01:03:46.636Z,18.75
2022-12-11T01:06:16.554Z,16.63
2022-12-11T01:08:45.071Z,15.45
2022-12-11T01:11:13.804Z,17.25
2022-12-11T01:13:42.257Z,16.52
2022-12-11T01:16:13.089Z,15.10
2022-12-11T01:18:40.849Z,15.63
2022-12-11T01:21:10.048Z,15.68
2022-12-11T01:23:38.336Z,14.95
2022-12-11T01:26:08.271Z,15.05
2022-12-11T01:28:36.097Z,15.70
2022-12-11T01:31:03.939Z,15.80
2022-12-11T01:33:32.853Z,14.65
2022-12-11T01:36:00.459Z,15.25
2022-12-11T01:38:27.986Z,14.52
2022-12-11T01:40:55.549Z,14.25
2022-12-11T01:43:23.129Z,15.05
2022-12-11T01:45:50.763Z,14.65
2022-12-11T01:48:22.166Z,16.02
2022-12-11T01:50:54.027Z,16.40
2022-12-11T01:53:25.334Z,16.73
2022-12-11T01:55:56.209Z,16.60
2022-12-11T01:58:28.248Z,15.50
2022-12-11T02:00:57.153Z,16.75
2022-12-11T02:03:24.836Z,17.08
2022-12-11T02:05:53.722Z,17.67
2022-12-11T02:08:22.213Z,15.70
2022-12-11T02:11:01.558Z,16.50
2022-12-11T02:13:35.805Z,16.92
2022-12-11T02:16:09.911Z,16.60
2022-12-11T02:18:43.099Z,16.88
2022-12-11T02:23:59.858Z,14.85
2022-12-11T02:26:49.816Z,16.00
2022-12-11T02:29:23.786Z,16.52
2022-12-11T02:31:57.443Z,15.75
2022-12-11T02:34:33.244Z,15.77
2022-12-11T02:37:07.856Z,15.02
2022-12-11T02:39:40.044Z,16.33
2022-12-11T02:42:10.931Z,15.75
2022-12-11T02:44:42.395Z,14.98
2022-12-11T02:47:14.632Z,16.58
2022-12-11T02:49:45.381Z,11.25
2022-12-11T02:52:15.408Z,15.27
2022-12-11T02:54:45.621Z,15.38
2022-12-11T02:57:17.683Z,15.63
2022-12-11T02:59:47.431Z,15.65
2022-12-11T03:02:18.732Z,15.45
2022-12-11T03:04:47.914Z,16.05
2022-12-11T03:07:19.154Z,15.00
2022-12-11T03:09:48.636Z,15.10
2022-12-11T03:12:20.153Z,15.18
2022-12-11T03:14:49.938Z,16.67
2022-12-11T03:17:20.619Z,16.92
2022-12-11T03:19:54.133Z,16.00
2022-12-11T03:22:26.297Z,15.95
2022-12-11T03:25:01.370Z,16.45
2022-12-11T03:27:34.210Z,15.63
2022-12-11T03:30:07.449Z,17.52
2022-12-11T03:35:13.143Z,16.08
2022-12-11T03:37:42.777Z,15.55
2022-12-11T03:40:17.767Z,17.08
2022-12-11T03:42:48.219Z,17.45
2022-12-11T03:45:18.811Z,16.23
2022-12-11T03:47:47.921Z,15.82
2022-12-11T03:50:18.167Z,16.83
2022-12-11T03:52:51.362Z,16.58
2022-12-11T03:57:48.392Z,15.13
2022-12-11T04:00:20.806Z,16.75
2022-12-11T04:03:13.219Z,16.40
2022-12-11T04:05:42.395Z,17.30
2022-12-11T04:08:10.198Z,16.75
2022-12-11T04:10:37.926Z,17.67
2022-12-11T04:13:05.560Z,17.02
2022-12-11T04:15:33.578Z,17.52
2022-12-11T04:18:18.702Z,17.67
2022-12-11T04:21:04.101Z,16.55
2022-12-11T04:23:49.430Z,16.60
2022-12-11T04:26:18.958Z,18.48
2022-12-11T04:28:48.398Z,18.08
2022-12-11T04:31:19.330Z,17.42
2022-12-11T04:33:47.148Z,17.52
2022-12-11T04:36:15.390Z,17.33
2022-12-11T04:38:42.983Z,17.85
2022-12-11T04:41:12.472Z,17.25
2022-12-11T04:43:40.619Z,17.45
2022-12-11T04:46:10.431Z,16.05
2022-12-11T04:48:40.668Z,17.30
2022-12-11T04:51:09.709Z,17.20
2022-12-11T04:53:37.672Z,17.15
2022-12-11T04:56:06.965Z,17.42
2022-12-11T04:58:35.805Z,18.90
2022-12-11T05:01:08.262Z,17.83
2022-12-11T05:03:35.995Z,18.52
2022-12-11T05:06:05.725Z,18.10
2022-12-11T05:08:36.791Z,17.40
2022-12-11T05:11:06.695Z,18.80
2022-12-11T05:13:34.857Z,17.73
2022-12-11T05:16:04.828Z,19.42
2022-12-11T05:18:32.482Z,18.50
2022-12-11T05:21:02.404Z,18.95
2022-12-11T05:23:31.691Z,18.15
2022-12-11T05:26:01.697Z,16.90
2022-12-11T05:28:32.041Z,17.13
2022-12-11T05:31:01.662Z,17.73
2022-12-11T05:33:30.390Z,18.20
2022-12-11T05:35:57.969Z,16.67
2022-12-11T05:38:25.685Z,17.20
2022-12-11T05:40:59.273Z,17.42
2022-12-11T05:43:28.579Z,16.80
2022-12-11T05:45:57.234Z,17.92
2022-12-11T05:48:24.862Z,16.52
2022-12-11T05:50:59.139Z,17.30
2022-12-11T05:53:27.289Z,18.15
2022-12-11T05:55:55.064Z,16.55
2022-12-11T05:58:24.100Z,16.77
2022-12-11T06:00:51.694Z,16.98
2022-12-11T06:03:19.372Z,16.92
2022-12-11T06:05:47.017Z,16.73
2022-12-11T06:08:14.657Z,17.00
2022-12-11T06:10:46.266Z,20.02
2022-12-11T06:13:14.234Z,30.73
2022-12-11T06:15:43.876Z,17.27
2022-12-11T06:18:11.599Z,16.98
2022-12-11T06:20:39.435Z,16.52
2022-12-11T06:23:07.063Z,17.55
2022-12-11T06:25:35.242Z,17.38
2022-12-11T06:28:02.916Z,16.45
2022-12-11T06:30:38.316Z,17.30
2022-12-11T06:33:08.400Z,15.57
2022-12-11T06:35:41.663Z,20.80
2022-12-11T06:38:10.495Z,24.58
2022-12-11T06:40:38.202Z,19.52
2022-12-11T06:43:06.184Z,17.48
2022-12-11T06:45:33.866Z,18.13
2022-12-11T06:48:01.483Z,18.17
2022-12-11T06:50:30.392Z,16.35
2022-12-11T06:52:58.102Z,16.30
2022-12-11T06:55:25.707Z,15.15
2022-12-11T06:57:53.223Z,15.73
2022-12-11T07:00:21.129Z,17.45
2022-12-11T07:02:48.726Z,17.38
2022-12-11T07:05:16.369Z,16.50
2022-12-11T07:07:45.349Z,15.88
2022-12-11T07:10:13.021Z,15.95
2022-12-11T07:12:40.730Z,16.67
2022-12-11T07:15:09.536Z,16.15
2022-12-11T07:17:37.362Z,19.05
2022-12-11T07:20:05.802Z,18.10
2022-12-11T07:22:33.355Z,18.17
2022-12-11T07:25:02.474Z,18.65
2022-12-11T07:27:30.216Z,20.40
2022-12-11T07:29:57.772Z,19.20
2022-12-11T07:32:25.469Z,15.70
2022-12-11T07:34:53.099Z,16.92
2022-12-11T07:37:20.669Z,16.02
2022-12-11T07:39:48.885Z,15.30
2022-12-11T07:42:17.919Z,15.18
2022-12-11T07:44:45.473Z,14.93
2022-12-11T07:47:13.037Z,15.70
2022-12-11T07:49:40.628Z,16.15
2022-12-11T07:52:08.185Z,16.10
2022-12-11T07:54:35.708Z,16.48
2022-12-11T07:57:03.297Z,16.02
2022-12-11T07:59:32.286Z,17.60
2022-12-11T08:02:02.113Z,16.45
2022-12-11T08:04:29.728Z,17.15
2022-12-11T08:06:58.671Z,16.40
2022-12-11T08:09:26.202Z,15.63
2022-12-11T08:11:53.789Z,15.88
2022-12-11T08:14:21.613Z,16.38
2022-12-11T08:16:50.630Z,17.05
2022-12-11T08:19:18.549Z,18.90
2022-12-11T08:21:46.714Z,20.73
2022-12-11T08:24:20.505Z,17.23
2022-12-11T08:26:48.592Z,16.60
2022-12-11T08:29:16.297Z,18.95
2022-12-11T08:31:43.890Z,19.00
2022-12-11T08:34:15.507Z,18.08
2022-12-11T08:36:44.204Z,15.52
2022-12-11T08:39:11.761Z,15.63
2022-12-11T08:41:39.516Z,15.27
2022-12-11T08:44:16.313Z,15.13
2022-12-11T08:46:44.651Z,15.55
2022-12-11T08:49:13.888Z,15.40
2022-12-11T08:51:41.469Z,15.13
2022-12-11T08:54:10.829Z,15.73
2022-12-11T08:56:38.407Z,14.30
2022-12-11T08:59:06.187Z,15.38
2022-12-11T09:01:33.768Z,14.57
2022-12-11T09:04:01.619Z,13.50
2022-12-11T09:06:31.470Z,15.05
2022-12-11T09:09:01.817Z,13.18
2022-12-11T09:11:31.600Z,12.80
2022-12-11T09:14:05.152Z,13.75
2022-12-11T09:16:37.532Z,15.18
2022-12-11T09:19:05.150Z,13.75
2022-12-11T09:21:34.313Z,13.65
2022-12-11T09:24:02.521Z,13.43
2022-12-11T09:26:31.624Z,13.80
2022-12-11T09:28:59.977Z,13.68
2022-12-11T09:31:29.598Z,16.58
2022-12-11T09:33:59.626Z,22.17
2022-12-11T09:36:27.828Z,14.77
2022-12-11T09:38:56.899Z,13.73
2022-12-11T09:41:35.942Z,14.07
2022-12-11T09:44:14.906Z,14.75
2022-12-11T09:46:43.905Z,14.32
2022-12-11T09:49:23.598Z,14.05
2022-12-11T09:51:57.332Z,14.25
2022-12-11T09:54:26.668Z,14.07
2022-12-11T09:57:02.413Z,15.02
2022-12-11T09:59:37.983Z,15.10
2022-12-11T10:02:27.005Z,14.27
2022-12-11T10:05:05.247Z,14.88
2022-12-11T10:07:38.982Z,15.38
2022-12-11T10:10:17.684Z,14.40
2022-12-11T10:12:54.432Z,13.85
2022-12-11T10:15:36.793Z,14.07
2022-12-11T10:18:07.042Z,14.30
2022-12-11T10:20:40.326Z,18.08
2022-12-11T10:23:09.436Z,14.70
2022-12-11T10:25:42.071Z,16.23
2022-12-11T10:28:12.373Z,14.83
2022-12-11T10:30:45.204Z,17.27
2022-12-11T10:33:19.335Z,16.13
2022-12-11T10:35:51.138Z,17.42
2022-12-11T10:38:27.394Z,15.57
2022-12-11T10:40:59.457Z,15.90
2022-12-11T10:43:35.097Z,17.95
2022-12-11T10:46:02.870Z,15.95
2022-12-11T10:48:30.504Z,15.98
2022-12-11T10:51:01.793Z,14.43
2022-12-11T10:53:30.101Z,14.63
2022-12-11T10:56:00.127Z,15.05
2022-12-11T10:58:31.812Z,14.48
2022-12-11T11:01:11.862Z,13.65
2022-12-11T11:03:55.108Z,13.48
2022-12-11T11:06:23.913Z,13.68
2022-12-11T11:08:53.310Z,14.15
2022-12-11T11:11:33.898Z,14.82
2022-12-11T11:14:16.343Z,15.40
2022-12-11T11:16:45.812Z,15.40
2022-12-11T11:19:21.258Z,14.75
2022-12-11T11:21:51.976Z,14.30
2022-12-11T11:24:28.001Z,15.07
2022-12-11T11:27:12.676Z,14.88
2022-12-11T11:29:42.456Z,12.80
2022-12-11T11:32:18.802Z,12.77
2022-12-11T11:34:46.406Z,14.32
2022-12-11T11:37:25.095Z,15.82
2022-12-11T11:39:57.461Z,13.50
2022-12-11T11:42:38.046Z,14.35
2022-12-11T11:45:13.522Z,14.23
2022-12-11T11:47:50.629Z,12.82
2022-12-11T11:50:24.043Z,13.02
2022-12-11T11:52:58.788Z,12.50
2022-12-11T11:55:39.451Z,12.85
2022-12-11T11:58:15.137Z,12.60
2022-12-11T12:00:43.533Z,12.60
2022-12-11T12:03:14.500Z,12.68
2022-12-11T12:05:50.836Z,14.13
2022-12-11T12:08:30.458Z,12.68
2022-12-11T12:11:04.508Z,12.85
2022-12-11T12:13:49.637Z,12.75
2022-12-11T12:16:52.365Z,13.15
2022-12-11T12:19:35.410Z,13.43
2022-12-11T12:22:16.290Z,13.05
2022-12-11T12:24:52.640Z,13.45
2022-12-11T12:27:51.008Z,12.77
2022-12-11T12:30:22.507Z,13.60
2022-12-11T12:33:07.270Z,13.43
2022-12-11T12:35:37.103Z,12.73
2022-12-11T12:38:15.857Z,12.38
2022-12-11T12:40:56.592Z,12.90
2022-12-11T12:43:45.485Z,12.70
2022-12-11T12:46:24.521Z,12.43
2022-12-11T12:48:53.517Z,12.70
2022-12-11T12:51:21.997Z,12.68
2022-12-11T12:53:58.291Z,12.15
2022-12-11T12:56:26.943Z,12.48
2022-12-11T12:58:54.479Z,11.93
2022-12-11T13:01:26.429Z,11.77
2022-12-11T13:03:57.423Z,11.20
2022-12-11T13:06:37.752Z,10.80
2022-12-11T13:09:15.801Z,11.25
2022-12-11T13:11:44.058Z,12.00
2022-12-11T13:14:28.442Z,11.20
2022-12-11T13:17:23.346Z,11.00
2022-12-11T13:19:57.436Z,12.07
2022-12-11T13:22:25.962Z,11.55
2022-12-11T13:25:01.680Z,11.63
2022-12-11T13:27:38.541Z,13.63
2022-12-11T13:30:09.059Z,12.15
2022-12-11T13:32:38.046Z,12.00
2022-12-11T13:35:07.544Z,12.32
2022-12-11T13:37:39.526Z,11.88
2022-12-11T13:40:10.721Z,11.98
2022-12-11T13:42:45.294Z,12.48
2022-12-11T13:45:20.317Z,12.10
2022-12-11T13:47:49.549Z,11.57
2022-12-11T13:50:21.744Z,12.25
2022-12-11T13:52:56.394Z,12.45
2022-12-11T13:55:26.486Z,12.45
2022-12-11T13:57:54.018Z,13.55
2022-12-11T14:00:25.165Z,13.18
2022-12-11T14:02:56.607Z,13.23
2022-12-11T14:05:25.013Z,12.02
2022-12-11T14:07:55.682Z,13.73
2022-12-11T14:10:25.730Z,13.50
2022-12-11T14:12:58.097Z,14.95
2022-12-11T14:15:27.074Z,13.80
2022-12-11T14:17:57.527Z,12.32
2022-12-11T14:20:28.101Z,12.02
2022-12-11T14:23:18.018Z,12.77
2022-12-11T14:25:53.441Z,12.38
2022-12-11T14:28:22.536Z,11.88
2022-12-11T14:30:52.720Z,13.35
2022-12-11T14:33:24.037Z,14.13
2022-12-11T14:35:55.721Z,12.73
2022-12-11T14:38:26.995Z,13.95
2022-12-11T14:40:59.432Z,13.75
2022-12-11T14:43:34.114Z,13.80
2022-12-11T14:46:08.728Z,13.10
2022-12-11T14:48:43.456Z,11.85
2022-12-11T14:51:15.568Z,14.73
2022-12-11T14:53:45.992Z,14.30
2022-12-11T14:56:19.379Z,12.90
2022-12-11T14:58:52.597Z,12.70
2022-12-11T15:04:03.921Z,13.77
2022-12-11T15:06:34.322Z,13.55
2022-12-11T15:09:21.001Z,13.27
2022-12-11T15:11:51.446Z,14.27
2022-12-11T15:14:21.574Z,14.60
2022-12-11T15:16:53.961Z,13.88
2022-12-11T15:19:28.140Z,14.43
2022-12-11T15:21:57.523Z,12.80
2022-12-11T15:24:31.298Z,14.48
2022-12-11T15:27:00.965Z,17.70
2022-12-11T15:29:34.911Z,19.60
2022-12-11T15:32:14.888Z,16.88
2022-12-11T15:34:46.684Z,15.45
2022-12-11T15:37:25.638Z,15.77
2022-12-11T15:39:54.806Z,15.70
2022-12-11T15:42:27.806Z,14.13
2022-12-11T15:44:56.295Z,14.07
2022-12-11T15:47:26.354Z,13.85
2022-12-11T15:49:58.912Z,13.75
2022-12-11T15:52:26.615Z,13.90
2022-12-11T15:54:54.176Z,13.68
2022-12-11T15:57:24.731Z,15.32
2022-12-11T15:59:54.926Z,13.10
2022-12-11T16:02:24.217Z,12.95
2022-12-11T16:04:51.994Z,13.20
2022-12-11T16:07:23.070Z,12.98
2022-12-11T16:09:51.392Z,13.55
2022-12-11T16:12:19.437Z,14.48
2022-12-11T16:14:47.596Z,13.13
2022-12-11T16:17:16.804Z,13.30
2022-12-11T16:19:45.120Z,13.38
2022-12-11T16:22:14.047Z,13.77
2022-12-11T16:24:42.974Z,13.77
2022-12-11T16:27:10.630Z,13.32
2022-12-11T16:29:40.711Z,13.98
2022-12-11T16:32:09.391Z,13.18
2022-12-11T16:34:38.133Z,12.82
2022-12-11T16:37:06.494Z,13.63
2022-12-11T16:39:34.129Z,14.63
2022-12-11T16:42:03.057Z,15.63
2022-12-11T16:44:30.626Z,15.52
2022-12-11T16:46:58.823Z,16.80
2022-12-11T16:49:26.377Z,16.80
2022-12-11T16:51:53.927Z,15.55
2022-12-11T16:54:21.479Z,14.93
2022-12-11T16:56:49.083Z,15.90
2022-12-11T16:59:17.993Z,16.23
2022-12-11T17:01:46.540Z,14.15
2022-12-11T17:04:14.099Z,14.40
2022-12-11T17:06:41.696Z,14.75
2022-12-11T17:09:09.226Z,13.98
2022-12-11T17:11:36.792Z,14.05
2022-12-11T17:14:04.448Z,14.45
2022-12-11T17:16:33.994Z,15.18
2022-12-11T17:19:02.939Z,14.98
2022-12-11T17:21:30.495Z,14.52
2022-12-11T17:23:58.035Z,15.55
2022-12-11T17:26:27.959Z,14.65
2022-12-11T17:28:57.170Z,15.38
2022-12-11T17:31:24.974Z,15.30
2022-12-11T17:33:54.704Z,16.02
2022-12-11T17:36:23.319Z,16.95
2022-12-11T17:38:50.883Z,22.10
2022-12-11T17:41:20.758Z,19.48
2022-12-11T17:43:49.105Z,16.52
2022-12-11T17:46:16.896Z,15.85
2022-12-11T17:48:44.892Z,16.95
2022-12-11T17:51:20.942Z,16.50
2022-12-11T17:53:50.598Z,18.67
2022-12-11T17:56:18.468Z,17.92
2022-12-11T17:58:47.316Z,17.40
2022-12-11T18:01:17.959Z,16.90
2022-12-11T18:03:45.752Z,16.77
2022-12-11T18:06:17.647Z,15.13
2022-12-11T18:08:46.149Z,15.13
2022-12-11T18:11:16.559Z,14.68
2022-12-11T18:13:45.007Z,16.90
2022-12-11T18:16:16.741Z,16.40
2022-12-11T18:18:45.731Z,14.85
2022-12-11T18:21:15.932Z,16.52
2022-12-11T18:23:44.233Z,16.52
2022-12-11T18:26:14.308Z,14.88
2022-12-11T18:28:42.147Z,14.50
2022-12-11T18:31:10.039Z,14.73
2022-12-11T18:33:38.962Z,16.23
2022-12-11T18:36:07.831Z,17.45
2022-12-11T18:38:36.784Z,18.02
2022-12-11T18:41:05.235Z,17.65
2022-12-11T18:43:32.875Z,17.17
2022-12-11T18:46:06.350Z,15.77
2022-12-11T18:48:34.024Z,16.02
2022-12-11T18:51:02.033Z,15.85
2022-12-11T18:53:29.715Z,14.52
2022-12-11T18:56:00.607Z,14.13
2022-12-11T18:58:28.457Z,13.60
2022-12-11T19:00:56.105Z,13.85
2022-12-11T19:03:23.785Z,13.00
2022-12-11T19:05:51.413Z,13.90
2022-12-11T19:08:19.100Z,15.10
2022-12-11T19:10:47.961Z,15.85
2022-12-11T19:13:16.955Z,15.20
2022-12-11T19:15:45.122Z,14.68
2022-12-11T19:18:12.708Z,12.90
2022-12-11T19:20:56.714Z,15.63
2022-12-11T19:23:31.710Z,12.98
2022-12-11T19:25:59.256Z,15.30
2022-12-11T19:28:28.216Z,14.25
2022-12-11T19:30:55.862Z,13.85
2022-12-11T19:33:23.565Z,14.80
2022-12-11T19:36:00.644Z,14.32
2022-12-11T19:38:31.027Z,14.43
2022-12-11T19:40:58.645Z,15.13
2022-12-11T19:43:26.194Z,15.82
2022-12-11T19:45:55.124Z,16.02
2022-12-11T19:48:22.653Z,17.73
2022-12-11T19:50:50.181Z,18.30
2022-12-11T19:53:17.717Z,18.05
2022-12-11T19:55:50.537Z,17.05
2022-12-11T19:58:18.403Z,15.95
2022-12-11T20:00:46.185Z,16.65
2022-12-11T20:03:15.161Z,18.00
2022-12-11T20:05:43.015Z,21.58
2022-12-11T20:11:04.544Z,19.38
2022-12-11T20:13:32.535Z,17.17
2022-12-11T20:16:00.417Z,17.80
2022-12-11T20:18:29.731Z,16.60
2022-12-11T20:21:00.752Z,16.60
2022-12-11T20:23:28.988Z,16.05
2022-12-11T20:25:59.016Z,15.15
2022-12-11T20:28:27.443Z,17.50
2022-12-11T20:30:55.017Z,16.92
2022-12-11T20:33:22.579Z,15.95
2022-12-11T20:35:51.666Z,16.35
2022-12-11T20:38:20.837Z,17.80
2022-12-11T20:40:48.382Z,18.20
2022-12-11T20:43:15.888Z,18.38
2022-12-11T20:45:48.533Z,18.00
2022-12-11T20:48:16.489Z,17.02
2022-12-11T20:50:44.125Z,16.98
2022-12-11T20:53:12.987Z,17.58
2022-12-11T20:55:41.440Z,17.80
2022-12-11T20:58:09.811Z,18.33
2022-12-11T21:00:37.617Z,18.20
2022-12-11T21:03:06.086Z,19.40
2022-12-11T21:05:33.650Z,22.55
2022-12-11T21:08:01.239Z,18.38
2022-12-11T21:10:30.135Z,18.33
2022-12-11T21:12:57.663Z,18.75
2022-12-11T21:15:25.218Z,19.48
2022-12-11T21:17:52.831Z,18.95
2022-12-11T21:20:21.134Z,18.17
2022-12-11T21:22:48.689Z,17.60
2022-12-11T21:25:16.287Z,18.10
2022-12-11T21:27:45.158Z,19.50
2022-12-11T21:30:13.907Z,18.67
2022-12-11T21:32:42.026Z,20.42
2022-12-11T21:35:10.936Z,20.95
2022-12-11T21:37:41.750Z,18.20
2022-12-11T21:40:10.525Z,20.25
2022-12-11T21:42:38.051Z,18.40
2022-12-11T21:45:58.801Z,18.98
2022-12-11T21:47:55.835Z,18.17
2022-12-11T21:50:24.013Z,18.48
2022-12-11T21:52:51.610Z,17.35
2022-12-11T21:55:19.340Z,17.52
2022-12-11T21:57:47.050Z,17.73
2022-12-11T22:00:16.956Z,17.13
2022-12-11T22:02:44.526Z,17.25
2022-12-11T22:05:12.414Z,17.73
2022-12-11T22:07:40.187Z,16.77
2022-12-11T22:10:08.782Z,18.13
2022-12-11T22:12:36.343Z,17.92
2022-12-11T22:15:04.489Z,19.20
2022-12-11T22:17:33.351Z,17.83
2022-12-11T22:20:00.911Z,17.27
2022-12-11T22:22:28.398Z,17.48
2022-12-11T22:24:55.964Z,17.50
2022-12-11T22:27:24.145Z,16.50
2022-12-11T22:29:51.870Z,16.30
2022-12-11T22:32:19.393Z,16.60
2022-12-11T22:34:48.232Z,17.15
2022-12-11T22:37:16.018Z,15.50
2022-12-11T22:39:43.608Z,17.05
2022-12-11T22:42:11.186Z,15.35
2022-12-11T22:44:38.716Z,16.70
2022-12-11T22:47:06.368Z,14.40
2022-12-11T22:49:33.970Z,13.07
2022-12-11T22:52:02.862Z,14.23
2022-12-11T22:54:30.435Z,14.20
2022-12-11T22:56:59.031Z,14.38
2022-12-11T22:59:26.582Z,13.52
2022-12-11T23:01:54.233Z,14.07
2022-12-11T23:04:21.830Z,14.13
2022-12-11T23:06:49.369Z,13.70
2022-12-11T23:09:18.676Z,13.50
2022-12-11T23:11:46.383Z,14.05
2022-12-11T23:14:16.077Z,13.82
2022-12-11T23:16:44.522Z,12.90
2022-12-11T23:19:13.237Z,15.20
2022-12-11T23:21:41.340Z,15.45
2022-12-11T23:24:09.621Z,14.43
2022-12-11T23:26:39.283Z,14.38
2022-12-11T23:29:07.232Z,14.15
2022-12-11T23:31:35.515Z,14.95
2022-12-11T23:34:03.114Z,15.52
2022-12-11T23:36:31.058Z,14.57
2022-12-11T23:38:58.884Z,15.20
2022-12-11T23:41:26.740Z,12.75
2022-12-11T23:43:55.770Z,14.10
2022-12-11T23:46:25.415Z,15.38
2022-12-11T23:48:53.690Z,13.75
2022-12-11T23:51:34.547Z,13.88
2022-12-11T23:54:02.117Z,13.35
2022-12-11T23:56:30.640Z,13.13
2022-12-11T23:59:00.233Z,13.40
